createdAt,value
2022-09-14T00:00:01.121Z,16.9
2022-09-14T00:01:24.162Z,17
2022-09-14T00:02:01.443Z,16.9
2022-09-14T00:03:01.216Z,16.9
2022-09-14T00:04:02.521Z,17
2022-09-14T00:05:01.965Z,16.9
2022-09-14T00:06:11.266Z,16.9
2022-09-14T00:07:01.074Z,16.9
2022-09-14T00:08:01.077Z,16.8
2022-09-14T00:09:01.097Z,16.8
2022-09-14T00:10:01.090Z,16.9
2022-09-14T00:11:13.413Z,16.8
2022-09-14T00:12:01.779Z,16.8
2022-09-14T00:13:01.109Z,16.8
2022-09-14T00:14:01.220Z,16.8
2022-09-14T00:15:01.438Z,16.8
2022-09-14T00:16:01.239Z,16.8
2022-09-14T00:17:01.208Z,16.8
2022-09-14T00:18:01.048Z,16.8
2022-09-14T00:19:01.049Z,16.8
2022-09-14T00:20:01.047Z,16.8
2022-09-14T00:21:01.067Z,16.8
2022-09-14T00:22:01.063Z,16.8
2022-09-14T00:23:01.069Z,16.8
2022-09-14T00:24:01.328Z,16.8
2022-09-14T00:25:01.054Z,16.8
2022-09-14T00:26:01.124Z,16.8
2022-09-14T00:27:01.098Z,16.8
2022-09-14T00:28:01.154Z,16.8
2022-09-14T00:29:01.107Z,16.8
2022-09-14T00:30:01.381Z,16.8
2022-09-14T00:31:01.440Z,16.8
2022-09-14T00:32:02.846Z,16.8
2022-09-14T00:33:02.930Z,16.8
2022-09-14T00:34:01.058Z,16.8
2022-09-14T00:35:01.060Z,16.8
2022-09-14T00:36:01.060Z,16.8
2022-09-14T00:37:01.080Z,16.8
2022-09-14T00:38:01.078Z,16.7
2022-09-14T00:39:01.148Z,16.7
2022-09-14T00:40:02.205Z,16.8
2022-09-14T00:41:02.170Z,16.8
2022-09-14T00:42:01.769Z,16.7
2022-09-14T00:43:01.777Z,16.7
2022-09-14T00:44:01.933Z,16.7
2022-09-14T00:45:01.370Z,16.7
2022-09-14T00:46:01.186Z,16.7
2022-09-14T00:47:01.941Z,16.7
2022-09-14T00:48:01.951Z,16.7
2022-09-14T00:49:01.042Z,16.6
2022-09-14T00:50:01.154Z,16.6
2022-09-14T00:51:00.737Z,16.6
2022-09-14T00:52:00.336Z,16.6
2022-09-14T00:52:59.925Z,16.6
2022-09-14T00:53:59.550Z,16.6
2022-09-14T00:55:01.137Z,16.6
2022-09-14T00:56:01.272Z,16.6
2022-09-14T00:57:01.104Z,16.6
2022-09-14T00:58:01.107Z,16.6
2022-09-14T00:59:01.123Z,16.7
2022-09-14T01:00:01.195Z,16.6
2022-09-14T01:01:01.628Z,16.6
2022-09-14T01:02:01.362Z,16.6
2022-09-14T01:03:01.127Z,16.6
2022-09-14T01:04:01.148Z,16.6
2022-09-14T01:05:01.043Z,16.6
2022-09-14T01:06:01.045Z,16.6
2022-09-14T01:07:01.165Z,16.6
2022-09-14T01:08:01.177Z,16.6
2022-09-14T01:09:01.197Z,16.6
2022-09-14T01:10:01.073Z,16.6
2022-09-14T01:11:01.098Z,16.6
2022-09-14T01:12:01.075Z,16.6
2022-09-14T01:13:00.791Z,16.6
2022-09-14T01:14:00.510Z,16.6
2022-09-14T01:15:00.306Z,16.6
2022-09-14T01:16:00.318Z,16.6
2022-09-14T01:17:00.086Z,16.6
2022-09-14T01:17:59.789Z,16.6
2022-09-14T01:19:02.162Z,16.6
2022-09-14T01:20:01.580Z,16.6
2022-09-14T01:21:01.966Z,16.6
2022-09-14T01:22:02.079Z,16.6
2022-09-14T01:23:00.756Z,16.6
2022-09-14T01:24:00.352Z,16.5
2022-09-14T01:25:00.044Z,16.5
2022-09-14T01:25:59.910Z,16.5
2022-09-14T01:26:59.542Z,16.5
2022-09-14T01:28:01.125Z,16.5
2022-09-14T01:29:01.105Z,16.5
2022-09-14T01:30:01.105Z,16.5
2022-09-14T01:31:01.422Z,16.5
2022-09-14T01:32:02.016Z,16.5
2022-09-14T01:33:04.178Z,16.5
2022-09-14T01:34:01.142Z,16.5
2022-09-14T01:35:01.140Z,16.4
2022-09-14T01:36:01.136Z,16.5
2022-09-14T01:37:05.452Z,16.4
2022-09-14T01:38:01.445Z,16.4
2022-09-14T01:39:01.066Z,16.4
2022-09-14T01:40:01.193Z,16.4
2022-09-14T01:41:01.076Z,16.4
2022-09-14T01:42:08.622Z,16.3
2022-09-14T01:43:01.102Z,16.4
2022-09-14T01:44:00.672Z,16.3
2022-09-14T01:45:00.377Z,16.4
2022-09-14T01:46:00.007Z,16.3
2022-09-14T01:47:12.325Z,16.4
2022-09-14T01:48:01.121Z,16.3
2022-09-14T01:49:00.996Z,16.3
2022-09-14T01:50:01.135Z,16.4
2022-09-14T01:51:01.140Z,16.4
2022-09-14T01:52:16.722Z,16.4
2022-09-14T01:53:01.057Z,16.3
2022-09-14T01:54:01.072Z,16.3
2022-09-14T01:55:01.061Z,16.3
2022-09-14T01:56:01.064Z,16.3
2022-09-14T01:57:01.076Z,16.3
2022-09-14T01:58:01.115Z,16.3
2022-09-14T01:59:01.485Z,16.3
2022-09-14T02:00:04.271Z,16.3
2022-09-14T02:01:01.171Z,16.3
2022-09-14T02:02:01.377Z,16.3
2022-09-14T02:03:01.112Z,16.3
2022-09-14T02:04:02.045Z,16.3
2022-09-14T02:05:02.033Z,16.3
2022-09-14T02:06:01.190Z,16.3
2022-09-14T02:07:01.769Z,16.3
2022-09-14T02:08:01.042Z,16.3
2022-09-14T02:09:01.057Z,16.3
2022-09-14T02:10:01.063Z,16.3
2022-09-14T02:11:01.068Z,16.3
2022-09-14T02:12:01.076Z,16.3
2022-09-14T02:13:01.061Z,16.3
2022-09-14T02:14:01.096Z,16.3
2022-09-14T02:15:01.350Z,16.3
2022-09-14T02:15:59.913Z,16.3
2022-09-14T02:16:59.567Z,16.3
2022-09-14T02:18:01.118Z,16.3
2022-09-14T02:19:01.123Z,16.3
2022-09-14T02:20:01.135Z,16.3
2022-09-14T02:21:01.128Z,16.2
2022-09-14T02:22:01.197Z,16.2
2022-09-14T02:23:01.056Z,16.2
2022-09-14T02:24:01.410Z,16.2
2022-09-14T02:25:01.434Z,16.1
2022-09-14T02:26:08.170Z,16.1
2022-09-14T02:27:01.177Z,16.1
2022-09-14T02:28:01.044Z,16.1
2022-09-14T02:29:01.026Z,16.1
2022-09-14T02:30:01.047Z,16.1
2022-09-14T02:31:01.193Z,16.1
2022-09-14T02:32:01.100Z,16.1
2022-09-14T02:33:01.490Z,16.1
2022-09-14T02:34:02.239Z,16.1
2022-09-14T02:35:01.159Z,16.1
2022-09-14T02:36:01.140Z,16.1
2022-09-14T02:37:01.138Z,16.1
2022-09-14T02:38:01.348Z,16.1
2022-09-14T02:39:01.143Z,16.1
2022-09-14T02:40:01.157Z,16.1
2022-09-14T02:41:01.058Z,16.1
2022-09-14T02:42:01.066Z,16.1
2022-09-14T02:43:01.474Z,16.1
2022-09-14T02:44:01.087Z,16.1
2022-09-14T02:45:01.076Z,16
2022-09-14T02:46:01.031Z,16.1
2022-09-14T02:47:00.663Z,16
2022-09-14T02:48:00.284Z,16
2022-09-14T02:49:00.003Z,16
2022-09-14T02:49:59.777Z,16
2022-09-14T02:51:01.415Z,16
2022-09-14T02:52:02.557Z,16
2022-09-14T02:53:02.043Z,16
2022-09-14T02:54:01.053Z,16
2022-09-14T02:55:01.139Z,16
2022-09-14T02:56:01.059Z,16
2022-09-14T02:57:01.061Z,16
2022-09-14T02:58:01.073Z,16
2022-09-14T02:59:01.079Z,16
2022-09-14T03:00:01.501Z,16
2022-09-14T03:01:01.263Z,15.9
2022-09-14T03:02:01.087Z,15.9
2022-09-14T03:03:01.603Z,15.9
2022-09-14T03:04:01.106Z,15.8
2022-09-14T03:05:01.299Z,15.8
2022-09-14T03:06:01.120Z,15.8
2022-09-14T03:07:01.049Z,15.8
2022-09-14T03:08:03.473Z,15.8
2022-09-14T03:09:01.437Z,15.8
2022-09-14T03:10:01.046Z,15.8
2022-09-14T03:11:01.043Z,15.8
2022-09-14T03:12:01.054Z,15.9
2022-09-14T03:13:05.536Z,15.9
2022-09-14T03:14:01.388Z,15.8
2022-09-14T03:15:02.098Z,15.8
2022-09-14T03:16:02.185Z,15.8
2022-09-14T03:17:01.091Z,15.8
2022-09-14T03:18:12.299Z,15.9
2022-09-14T03:19:01.115Z,15.8
2022-09-14T03:20:01.107Z,15.8
2022-09-14T03:21:01.112Z,15.8
2022-09-14T03:22:01.044Z,15.8
2022-09-14T03:23:11.152Z,15.8
2022-09-14T03:24:01.537Z,15.8
2022-09-14T03:25:01.024Z,15.8
2022-09-14T03:26:01.157Z,15.8
2022-09-14T03:27:00.840Z,15.8
2022-09-14T03:28:13.272Z,15.8
2022-09-14T03:29:01.753Z,15.8
2022-09-14T03:30:01.778Z,15.8
2022-09-14T03:31:01.802Z,15.7
2022-09-14T03:32:01.099Z,15.8
2022-09-14T03:33:16.205Z,15.8
2022-09-14T03:34:02.269Z,15.8
2022-09-14T03:35:01.111Z,15.8
2022-09-14T03:36:01.153Z,15.8
2022-09-14T03:37:01.117Z,15.8
2022-09-14T03:38:01.124Z,15.8
2022-09-14T03:39:01.156Z,15.8
2022-09-14T03:40:01.265Z,15.8
2022-09-14T03:41:01.302Z,15.8
2022-09-14T03:42:01.478Z,15.8
2022-09-14T03:43:01.988Z,15.7
2022-09-14T03:44:01.091Z,15.7
2022-09-14T03:45:00.920Z,15.7
2022-09-14T03:46:00.555Z,15.7
2022-09-14T03:47:00.411Z,15.6
2022-09-14T03:48:00.152Z,15.6
2022-09-14T03:48:59.856Z,15.6
2022-09-14T03:50:01.526Z,15.6
2022-09-14T03:51:01.520Z,15.6
2022-09-14T03:52:01.784Z,15.6
2022-09-14T03:53:01.209Z,15.6
2022-09-14T03:54:01.146Z,15.6
2022-09-14T03:55:01.036Z,15.6
2022-09-14T03:56:01.141Z,15.6
2022-09-14T03:57:01.432Z,15.6
2022-09-14T03:58:01.164Z,15.6
2022-09-14T03:59:01.485Z,15.6
2022-09-14T04:00:00.874Z,15.6
2022-09-14T04:01:01.203Z,15.6
2022-09-14T04:02:01.197Z,15.6
2022-09-14T04:03:04.018Z,15.6
2022-09-14T04:04:01.096Z,15.6
2022-09-14T04:05:01.025Z,15.6
2022-09-14T04:06:01.487Z,15.6
2022-09-14T04:07:02.172Z,15.6
2022-09-14T04:08:01.111Z,15.6
2022-09-14T04:09:00.694Z,15.6
2022-09-14T04:10:00.321Z,15.6
2022-09-14T04:11:00.005Z,15.6
2022-09-14T04:11:59.597Z,15.6
2022-09-14T04:13:01.241Z,15.6
2022-09-14T04:14:01.125Z,15.5
2022-09-14T04:15:01.463Z,15.6
2022-09-14T04:16:01.128Z,15.6
2022-09-14T04:17:01.077Z,15.6
2022-09-14T04:18:01.082Z,15.6
2022-09-14T04:19:01.098Z,15.6
2022-09-14T04:20:01.088Z,15.6
2022-09-14T04:21:05.793Z,15.5
2022-09-14T04:22:01.114Z,15.5
2022-09-14T04:23:01.223Z,15.5
2022-09-14T04:24:17.497Z,15.5
2022-09-14T04:25:00.823Z,15.5
2022-09-14T04:26:00.521Z,15.5
2022-09-14T04:27:00.209Z,15.5
2022-09-14T04:28:19.245Z,15.5
2022-09-14T04:29:01.852Z,15.5
2022-09-14T04:30:00.547Z,15.5
2022-09-14T04:31:00.327Z,15.5
2022-09-14T04:32:00.035Z,15.5
2022-09-14T04:32:59.629Z,15.5
2022-09-14T04:34:01.179Z,15.5
2022-09-14T04:35:01.063Z,15.5
2022-09-14T04:36:01.033Z,15.5
2022-09-14T04:37:01.040Z,15.5
2022-09-14T04:38:01.110Z,15.5
2022-09-14T04:39:01.469Z,15.4
2022-09-14T04:40:01.582Z,15.4
2022-09-14T04:41:01.141Z,15.4
2022-09-14T04:42:01.244Z,15.3
2022-09-14T04:43:01.040Z,15.4
2022-09-14T04:44:01.164Z,15.3
2022-09-14T04:45:01.039Z,15.4
2022-09-14T04:46:01.209Z,15.4
2022-09-14T04:47:01.283Z,15.4
2022-09-14T04:48:03.938Z,15.4
2022-09-14T04:49:01.567Z,15.4
2022-09-14T04:50:01.315Z,15.4
2022-09-14T04:51:01.527Z,15.4
2022-09-14T04:52:01.113Z,15.4
2022-09-14T04:53:01.116Z,15.4
2022-09-14T04:54:04.408Z,15.4
2022-09-14T04:55:01.044Z,15.4
2022-09-14T04:56:01.126Z,15.4
2022-09-14T04:57:01.517Z,15.4
2022-09-14T04:58:01.250Z,15.4
2022-09-14T04:59:07.917Z,15.5
2022-09-14T05:00:01.296Z,15.5
2022-09-14T05:01:01.681Z,15.5
2022-09-14T05:02:01.221Z,15.5
2022-09-14T05:03:01.503Z,15.5
2022-09-14T05:04:11.624Z,15.5
2022-09-14T05:05:01.116Z,15.6
2022-09-14T05:06:01.769Z,15.7
2022-09-14T05:07:01.548Z,15.9
2022-09-14T05:08:01.603Z,16.1
2022-09-14T05:09:14.715Z,16.3
2022-09-14T05:10:01.414Z,16.5
2022-09-14T05:11:01.432Z,16.8
2022-09-14T05:12:02.044Z,17
2022-09-14T05:13:02.169Z,17
2022-09-14T05:14:01.052Z,17.1
2022-09-14T05:15:00.739Z,17
2022-09-14T05:16:00.524Z,17
2022-09-14T05:17:00.442Z,16.8
2022-09-14T05:18:00.035Z,16.8
2022-09-14T05:19:00.347Z,16.6
2022-09-14T05:19:59.939Z,16.6
2022-09-14T05:20:59.647Z,16.6
2022-09-14T05:22:01.284Z,16.5
2022-09-14T05:23:01.105Z,16.5
2022-09-14T05:24:01.266Z,16.5
2022-09-14T05:25:01.445Z,16.4
2022-09-14T05:26:01.501Z,16.4
2022-09-14T05:27:02.388Z,16.3
2022-09-14T05:28:02.155Z,16.3
2022-09-14T05:29:02.153Z,16.3
2022-09-14T05:30:01.052Z,16.3
2022-09-14T05:31:01.150Z,16.3
2022-09-14T05:32:01.159Z,16.4
2022-09-14T05:33:01.380Z,16.4
2022-09-14T05:34:01.068Z,16.4
2022-09-14T05:35:01.112Z,16.5
2022-09-14T05:36:01.116Z,16.5
2022-09-14T05:37:01.472Z,16.5
2022-09-14T05:38:01.521Z,16.5
2022-09-14T05:39:01.103Z,16.5
2022-09-14T05:40:01.107Z,16.5
2022-09-14T05:41:01.027Z,16.5
2022-09-14T05:42:01.636Z,16.5
2022-09-14T05:43:01.267Z,16.5
2022-09-14T05:44:01.576Z,16.5
2022-09-14T05:45:01.952Z,16.4
2022-09-14T05:46:01.377Z,16.4
2022-09-14T05:47:01.316Z,16.3
2022-09-14T05:48:01.553Z,16.3
2022-09-14T05:49:01.490Z,16.3
2022-09-14T05:50:01.679Z,16.3
2022-09-14T05:51:01.116Z,16.3
2022-09-14T05:52:01.083Z,16.3
2022-09-14T05:53:01.113Z,16.3
2022-09-14T05:54:01.098Z,16.2
2022-09-14T05:55:01.396Z,16.2
2022-09-14T05:56:01.483Z,16.2
2022-09-14T05:57:02.915Z,16.2
2022-09-14T05:58:01.436Z,16.2
2022-09-14T05:59:01.508Z,16.2
2022-09-14T06:00:01.001Z,16.1
2022-09-14T06:01:01.062Z,16.1
2022-09-14T06:02:01.154Z,16.2
2022-09-14T06:03:01.075Z,16.1
2022-09-14T06:04:01.067Z,16.2
2022-09-14T06:05:01.018Z,16.1
2022-09-14T06:06:01.189Z,16.2
2022-09-14T06:07:18.020Z,16.2
2022-09-14T06:08:01.703Z,16.2
2022-09-14T06:09:01.116Z,16.2
2022-09-14T06:10:01.818Z,16.2
2022-09-14T06:11:01.114Z,16.3
2022-09-14T06:12:01.124Z,16.2
2022-09-14T06:13:01.502Z,16.2
2022-09-14T06:14:01.529Z,16.3
2022-09-14T06:15:01.217Z,16.3
2022-09-14T06:16:01.159Z,16.3
2022-09-14T06:17:01.151Z,16.3
2022-09-14T06:18:01.077Z,16.3
2022-09-14T06:19:01.401Z,16.3
2022-09-14T06:20:04.612Z,16.3
2022-09-14T06:21:02.105Z,16.3
2022-09-14T06:22:01.090Z,16.3
2022-09-14T06:23:01.040Z,16.3
2022-09-14T06:24:04.258Z,16.3
2022-09-14T06:25:01.040Z,16.3
2022-09-14T06:26:01.106Z,16.4
2022-09-14T06:27:01.109Z,16.4
2022-09-14T06:28:01.127Z,16.4
2022-09-14T06:29:01.131Z,16.5
2022-09-14T06:30:01.079Z,16.5
2022-09-14T06:31:02.724Z,16.5
2022-09-14T06:32:02.684Z,16.5
2022-09-14T06:33:01.480Z,16.5
2022-09-14T06:34:02.869Z,16.5
2022-09-14T06:35:04.013Z,16.5
2022-09-14T06:36:04.574Z,16.5
2022-09-14T06:37:01.098Z,16.5
2022-09-14T06:38:01.110Z,16.5
2022-09-14T06:39:01.040Z,16.5
2022-09-14T06:40:06.469Z,16.5
2022-09-14T06:41:01.503Z,16.5
2022-09-14T06:42:01.116Z,16.5
2022-09-14T06:43:01.055Z,16.5
2022-09-14T06:44:01.353Z,16.5
2022-09-14T06:45:08.719Z,16.5
2022-09-14T06:46:01.456Z,16.5
2022-09-14T06:47:01.141Z,16.6
2022-09-14T06:48:01.058Z,16.6
2022-09-14T06:49:01.064Z,16.6
2022-09-14T06:50:11.641Z,16.6
2022-09-14T06:51:01.446Z,16.6
2022-09-14T06:52:01.159Z,16.6
2022-09-14T06:53:01.092Z,16.6
2022-09-14T06:54:01.040Z,16.6
2022-09-14T06:55:14.655Z,16.6
2022-09-14T06:56:01.119Z,16.6
2022-09-14T06:57:01.140Z,16.6
2022-09-14T06:58:01.117Z,16.6
2022-09-14T06:59:01.389Z,16.6
2022-09-14T07:00:16.817Z,16.6
2022-09-14T07:01:01.125Z,16.6
2022-09-14T07:02:01.165Z,16.6
2022-09-14T07:03:01.220Z,16.6
2022-09-14T07:04:01.870Z,16.6
2022-09-14T07:05:01.861Z,16.6
2022-09-14T07:06:01.050Z,16.6
2022-09-14T07:07:01.077Z,16.6
2022-09-14T07:08:01.076Z,16.6
2022-09-14T07:09:01.305Z,16.7
2022-09-14T07:10:01.300Z,16.7
2022-09-14T07:11:01.094Z,16.7
2022-09-14T07:12:01.126Z,16.8
2022-09-14T07:13:01.255Z,16.8
2022-09-14T07:14:01.108Z,16.8
2022-09-14T07:15:01.156Z,16.8
2022-09-14T07:16:01.127Z,16.8
2022-09-14T07:17:01.359Z,16.8
2022-09-14T07:18:01.485Z,16.8
2022-09-14T07:19:01.475Z,16.8
2022-09-14T07:20:01.443Z,16.8
2022-09-14T07:21:05.272Z,16.9
2022-09-14T07:22:01.335Z,16.8
2022-09-14T07:23:01.944Z,16.9
2022-09-14T07:24:01.995Z,16.9
2022-09-14T07:25:01.084Z,17
2022-09-14T07:26:01.471Z,17
2022-09-14T07:27:01.089Z,17
2022-09-14T07:28:01.034Z,17
2022-09-14T07:29:01.059Z,17
2022-09-14T07:30:01.154Z,17
2022-09-14T07:31:01.268Z,17
2022-09-14T07:32:00.913Z,17
2022-09-14T07:33:01.414Z,17
2022-09-14T07:34:01.048Z,17
2022-09-14T07:35:01.065Z,17
2022-09-14T07:36:00.746Z,17
2022-09-14T07:37:00.339Z,17
2022-09-14T07:38:00.020Z,17
2022-09-14T07:38:59.635Z,17
2022-09-14T07:40:01.548Z,17
2022-09-14T07:41:01.816Z,17
2022-09-14T07:42:01.390Z,17.1
2022-09-14T07:43:01.038Z,17.1
2022-09-14T07:44:01.112Z,17.1
2022-09-14T07:45:00.689Z,17.1
2022-09-14T07:46:00.516Z,17.1
2022-09-14T07:47:00.188Z,17.1
2022-09-14T07:47:59.785Z,17.1
2022-09-14T07:49:01.559Z,17.2
2022-09-14T07:50:01.175Z,17.1
2022-09-14T07:51:01.144Z,17.2
2022-09-14T07:52:00.842Z,17.2
2022-09-14T07:53:00.470Z,17.2
2022-09-14T07:54:00.458Z,17.2
2022-09-14T07:55:00.120Z,17.2
2022-09-14T07:55:59.737Z,17.1
2022-09-14T07:57:01.901Z,17.1
2022-09-14T07:58:01.091Z,17.1
2022-09-14T07:59:17.663Z,17.1
2022-09-14T08:00:01.115Z,17.1
2022-09-14T08:01:01.994Z,17.1
2022-09-14T08:02:02.144Z,17.1
2022-09-14T08:03:02.437Z,17.1
2022-09-14T08:04:08.529Z,17.2
2022-09-14T08:05:02.093Z,17.2
2022-09-14T08:06:01.074Z,17.1
2022-09-14T08:07:01.881Z,17.1
2022-09-14T08:08:01.445Z,17.2
2022-09-14T08:09:01.502Z,17.2
2022-09-14T08:10:01.211Z,17.2
2022-09-14T08:11:02.787Z,17.3
2022-09-14T08:12:01.569Z,17.3
2022-09-14T08:13:02.246Z,17.4
2022-09-14T08:14:02.748Z,17.4
2022-09-14T08:15:01.405Z,17.4
2022-09-14T08:16:05.170Z,17.4
2022-09-14T08:17:01.181Z,17.5
2022-09-14T08:18:01.531Z,17.5
2022-09-14T08:19:01.186Z,17.4
2022-09-14T08:20:01.203Z,17.4
2022-09-14T08:21:08.497Z,17.4
2022-09-14T08:22:01.158Z,17.4
2022-09-14T08:23:00.754Z,17.4
2022-09-14T08:24:00.303Z,17.4
2022-09-14T08:24:59.923Z,17.5
2022-09-14T08:26:10.015Z,17.5
2022-09-14T08:27:01.113Z,17.4
2022-09-14T08:28:01.089Z,17.3
2022-09-14T08:29:01.261Z,17.4
2022-09-14T08:30:01.133Z,17.3
2022-09-14T08:31:11.717Z,17.3
2022-09-14T08:32:01.309Z,17.3
2022-09-14T08:33:01.970Z,17.4
2022-09-14T08:34:01.139Z,17.4
2022-09-14T08:35:01.149Z,17.4
2022-09-14T08:36:14.365Z,17.4
2022-09-14T08:37:01.717Z,17.5
2022-09-14T08:38:01.319Z,17.5
2022-09-14T08:39:01.352Z,17.5
2022-09-14T08:40:02.693Z,17.5
2022-09-14T08:41:16.719Z,17.6
2022-09-14T08:42:01.410Z,17.6
2022-09-14T08:43:01.049Z,17.6
2022-09-14T08:44:01.111Z,17.6
2022-09-14T08:45:01.922Z,17.5
2022-09-14T08:46:01.477Z,17.6
2022-09-14T08:47:02.482Z,17.6
2022-09-14T08:48:02.174Z,17.6
2022-09-14T08:49:02.165Z,17.6
2022-09-14T08:50:02.236Z,17.6
2022-09-14T08:51:01.171Z,17.6
2022-09-14T08:52:00.840Z,17.6
2022-09-14T08:53:00.446Z,17.6
2022-09-14T08:54:00.030Z,17.6
2022-09-14T08:54:59.619Z,17.6
2022-09-14T08:56:01.737Z,17.6
2022-09-14T08:57:01.975Z,17.7
2022-09-14T08:58:02.282Z,17.7
2022-09-14T08:59:01.094Z,17.8
2022-09-14T09:00:01.101Z,17.8
2022-09-14T09:01:01.913Z,17.9
2022-09-14T09:02:02.067Z,17.9
2022-09-14T09:03:01.162Z,18
2022-09-14T09:04:01.203Z,18
2022-09-14T09:05:01.119Z,18
2022-09-14T09:06:01.199Z,18
2022-09-14T09:07:01.158Z,18.1
2022-09-14T09:08:01.139Z,18.1
2022-09-14T09:09:01.773Z,18.2
2022-09-14T09:10:01.722Z,18.3
2022-09-14T09:11:01.349Z,18.3
2022-09-14T09:12:01.074Z,18.3
2022-09-14T09:13:01.081Z,18.4
2022-09-14T09:14:01.089Z,18.5
2022-09-14T09:15:01.089Z,18.5
2022-09-14T09:16:01.168Z,18.5
2022-09-14T09:17:01.475Z,18.5
2022-09-14T09:18:02.570Z,18.6
2022-09-14T09:19:01.132Z,18.6
2022-09-14T09:20:01.114Z,18.6
2022-09-14T09:21:01.140Z,18.6
2022-09-14T09:22:01.156Z,18.6
2022-09-14T09:23:01.140Z,18.6
2022-09-14T09:24:01.777Z,18.6
2022-09-14T09:25:01.793Z,18.6
2022-09-14T09:26:01.068Z,18.7
2022-09-14T09:27:01.454Z,18.6
2022-09-14T09:28:01.182Z,18.6
2022-09-14T09:29:01.098Z,18.6
2022-09-14T09:30:01.073Z,18.6
2022-09-14T09:31:01.222Z,18.6
2022-09-14T09:32:01.060Z,18.6
2022-09-14T09:33:01.807Z,18.6
2022-09-14T09:34:01.199Z,18.6
2022-09-14T09:35:01.540Z,18.6
2022-09-14T09:36:01.336Z,18.6
2022-09-14T09:37:01.150Z,18.6
2022-09-14T09:38:01.136Z,18.6
2022-09-14T09:39:04.926Z,18.6
2022-09-14T09:40:01.767Z,18.6
2022-09-14T09:41:01.722Z,18.6
2022-09-14T09:42:01.074Z,18.6
2022-09-14T09:43:01.079Z,18.6
2022-09-14T09:44:01.359Z,18.7
2022-09-14T09:45:03.697Z,18.8
2022-09-14T09:46:02.104Z,18.8
2022-09-14T09:47:01.893Z,18.8
2022-09-14T09:48:01.423Z,18.8
2022-09-14T09:49:01.346Z,18.8
2022-09-14T09:50:02.438Z,18.8
2022-09-14T09:51:02.456Z,18.8
2022-09-14T09:52:01.141Z,18.8
2022-09-14T09:53:06.570Z,18.8
2022-09-14T09:54:02.148Z,18.8
2022-09-14T09:55:01.154Z,18.8
2022-09-14T09:56:01.040Z,18.8
2022-09-14T09:57:01.048Z,18.8
2022-09-14T09:58:01.069Z,18.8
2022-09-14T09:59:01.078Z,18.8
2022-09-14T10:00:01.068Z,18.8
2022-09-14T10:01:01.223Z,18.8
2022-09-14T10:02:01.933Z,18.8
2022-09-14T10:03:01.138Z,18.8
2022-09-14T10:04:01.157Z,18.8
2022-09-14T10:05:01.273Z,18.8
2022-09-14T10:06:01.282Z,18.8
2022-09-14T10:07:01.897Z,18.8
2022-09-14T10:08:01.143Z,18.8
2022-09-14T10:09:00.622Z,18.8
2022-09-14T10:10:00.249Z,18.9
2022-09-14T10:10:59.900Z,18.9
2022-09-14T10:12:03.572Z,19
2022-09-14T10:13:00.775Z,19
2022-09-14T10:14:00.459Z,18.9
2022-09-14T10:15:00.445Z,19
2022-09-14T10:16:00.134Z,19
2022-09-14T10:17:05.995Z,19
2022-09-14T10:18:01.476Z,19
2022-09-14T10:19:01.415Z,19
2022-09-14T10:20:01.333Z,19.1
2022-09-14T10:21:00.994Z,19.1
2022-09-14T10:22:09.826Z,19.1
2022-09-14T10:23:01.139Z,19.1
2022-09-14T10:24:01.509Z,19.2
2022-09-14T10:25:01.909Z,19.2
2022-09-14T10:26:01.135Z,19.2
2022-09-14T10:27:13.639Z,19.2
2022-09-14T10:28:01.063Z,19.1
2022-09-14T10:29:01.211Z,19.1
2022-09-14T10:30:01.161Z,19.2
2022-09-14T10:31:01.454Z,19.2
2022-09-14T10:32:16.338Z,19.2
2022-09-14T10:33:02.151Z,19.2
2022-09-14T10:34:02.118Z,19.2
2022-09-14T10:35:01.378Z,19.2
2022-09-14T10:36:01.105Z,19.2
2022-09-14T10:37:01.106Z,19.2
2022-09-14T10:38:01.134Z,19.2
2022-09-14T10:39:01.141Z,19.2
2022-09-14T10:40:01.385Z,19.2
2022-09-14T10:41:01.891Z,19.1
2022-09-14T10:42:01.422Z,19.1
2022-09-14T10:43:01.186Z,19.1
2022-09-14T10:44:01.072Z,19.1
2022-09-14T10:45:01.072Z,19.1
2022-09-14T10:46:01.094Z,19.2
2022-09-14T10:47:04.528Z,19.2
2022-09-14T10:48:01.109Z,19.2
2022-09-14T10:49:01.388Z,19.3
2022-09-14T10:50:01.402Z,19.3
2022-09-14T10:51:01.489Z,19.3
2022-09-14T10:52:02.022Z,19.3
2022-09-14T10:53:01.040Z,19.4
2022-09-14T10:54:01.124Z,19.4
2022-09-14T10:55:01.132Z,19.5
2022-09-14T10:56:01.889Z,19.5
2022-09-14T10:57:01.875Z,19.5
2022-09-14T10:58:01.554Z,19.4
2022-09-14T10:59:00.452Z,19.3
2022-09-14T11:00:00.017Z,19.3
2022-09-14T11:00:59.720Z,19.3
2022-09-14T11:02:01.558Z,19.3
2022-09-14T11:03:01.257Z,19.4
2022-09-14T11:04:01.986Z,19.5
2022-09-14T11:05:02.100Z,19.5
2022-09-14T11:06:02.146Z,19.5
2022-09-14T11:07:01.105Z,19.6
2022-09-14T11:08:01.134Z,19.6
2022-09-14T11:09:01.119Z,19.6
2022-09-14T11:10:01.124Z,19.6
2022-09-14T11:11:01.130Z,19.6
2022-09-14T11:12:01.171Z,19.6
2022-09-14T11:13:01.074Z,19.6
2022-09-14T11:14:01.437Z,19.7
2022-09-14T11:15:01.466Z,19.7
2022-09-14T11:16:01.282Z,19.7
2022-09-14T11:17:01.065Z,19.7
2022-09-14T11:18:01.095Z,19.7
2022-09-14T11:19:01.077Z,19.8
2022-09-14T11:20:01.144Z,19.8
2022-09-14T11:21:01.095Z,19.7
2022-09-14T11:22:01.102Z,19.7
2022-09-14T11:23:01.244Z,19.7
2022-09-14T11:24:01.525Z,19.7
2022-09-14T11:25:01.123Z,19.6
2022-09-14T11:26:01.188Z,19.6
2022-09-14T11:27:01.144Z,19.6
2022-09-14T11:28:01.130Z,19.6
2022-09-14T11:29:01.160Z,19.6
2022-09-14T11:30:01.885Z,19.6
2022-09-14T11:31:02.713Z,19.6
2022-09-14T11:32:19.683Z,19.6
2022-09-14T11:33:02.262Z,19.6
2022-09-14T11:34:01.807Z,19.6
2022-09-14T11:35:02.202Z,19.6
2022-09-14T11:36:02.758Z,19.6
2022-09-14T11:37:01.131Z,19.6
2022-09-14T11:38:01.118Z,19.6
2022-09-14T11:39:04.756Z,19.6
2022-09-14T11:40:01.417Z,19.6
2022-09-14T11:41:01.393Z,19.6
2022-09-14T11:42:01.529Z,19.6
2022-09-14T11:43:02.064Z,19.6
2022-09-14T11:44:01.091Z,19.6
2022-09-14T11:45:01.059Z,19.6
2022-09-14T11:46:01.120Z,19.6
2022-09-14T11:47:01.167Z,19.6
2022-09-14T11:48:00.738Z,19.6
2022-09-14T11:49:00.344Z,19.5
2022-09-14T11:49:59.939Z,19.5
2022-09-14T11:50:59.504Z,19.6
2022-09-14T11:52:01.104Z,19.6
2022-09-14T11:53:03.099Z,19.6
2022-09-14T11:54:01.421Z,19.6
2022-09-14T11:55:01.113Z,19.6
2022-09-14T11:56:01.114Z,19.6
2022-09-14T11:57:01.128Z,19.6
2022-09-14T11:58:04.721Z,19.6
2022-09-14T11:59:01.137Z,19.6
2022-09-14T12:00:01.559Z,19.6
2022-09-14T12:01:02.106Z,19.6
2022-09-14T12:02:01.939Z,19.6
2022-09-14T12:03:08.971Z,19.6
2022-09-14T12:04:01.145Z,19.6
2022-09-14T12:05:01.079Z,19.6
2022-09-14T12:06:01.125Z,19.6
2022-09-14T12:07:01.092Z,19.6
2022-09-14T12:08:11.844Z,19.6
2022-09-14T12:09:01.081Z,19.6
2022-09-14T12:10:01.129Z,19.7
2022-09-14T12:11:01.221Z,19.7
2022-09-14T12:12:01.132Z,19.7
2022-09-14T12:13:14.359Z,19.8
2022-09-14T12:14:01.141Z,19.7
2022-09-14T12:15:01.304Z,19.7
2022-09-14T12:16:01.493Z,19.7
2022-09-14T12:17:04.109Z,19.7
2022-09-14T12:18:01.185Z,19.7
2022-09-14T12:19:01.884Z,19.6
2022-09-14T12:20:01.064Z,19.6
2022-09-14T12:21:01.085Z,19.6
2022-09-14T12:22:01.080Z,19.6
2022-09-14T12:23:01.092Z,19.6
2022-09-14T12:24:01.203Z,19.6
2022-09-14T12:25:01.221Z,19.6
2022-09-14T12:26:01.497Z,19.6
2022-09-14T12:27:02.075Z,19.6
2022-09-14T12:28:01.129Z,19.6
2022-09-14T12:29:00.710Z,19.6
2022-09-14T12:30:00.316Z,19.6
2022-09-14T12:31:00.285Z,19.6
2022-09-14T12:32:00.021Z,19.6
2022-09-14T12:32:59.843Z,19.6
2022-09-14T12:34:02.096Z,19.6
2022-09-14T12:35:02.232Z,19.6
2022-09-14T12:36:01.085Z,19.6
2022-09-14T12:37:01.096Z,19.6
2022-09-14T12:38:01.109Z,19.5
2022-09-14T12:39:01.110Z,19.5
2022-09-14T12:40:01.229Z,19.5
2022-09-14T12:41:01.040Z,19.5
2022-09-14T12:42:01.108Z,19.5
2022-09-14T12:43:01.123Z,19.5
2022-09-14T12:44:01.699Z,19.5
2022-09-14T12:45:01.160Z,19.6
2022-09-14T12:46:01.118Z,19.6
2022-09-14T12:47:01.057Z,19.6
2022-09-14T12:48:01.060Z,19.6
2022-09-14T12:49:01.066Z,19.6
2022-09-14T12:50:01.075Z,19.6
2022-09-14T12:51:01.078Z,19.6
2022-09-14T12:52:00.663Z,19.6
2022-09-14T12:53:00.376Z,19.6
2022-09-14T12:54:00.001Z,19.6
2022-09-14T12:55:00.185Z,19.6
2022-09-14T12:55:59.889Z,19.6
2022-09-14T12:56:59.442Z,19.6
2022-09-14T12:58:02.522Z,19.5
2022-09-14T12:59:02.602Z,19.5
2022-09-14T13:00:02.575Z,19.5
2022-09-14T13:01:01.297Z,19.5
2022-09-14T13:02:01.491Z,19.5
2022-09-14T13:03:01.447Z,19.5
2022-09-14T13:04:02.586Z,19.5
2022-09-14T13:05:01.039Z,19.5
2022-09-14T13:06:01.063Z,19.5
2022-09-14T13:07:01.113Z,19.5
2022-09-14T13:08:01.127Z,19.6
2022-09-14T13:09:07.474Z,19.6
2022-09-14T13:10:01.406Z,19.5
2022-09-14T13:11:02.039Z,19.5
2022-09-14T13:12:01.234Z,19.5
2022-09-14T13:13:01.128Z,19.6
2022-09-14T13:14:01.360Z,19.5
2022-09-14T13:15:01.122Z,19.5
2022-09-14T13:16:01.237Z,19.5
2022-09-14T13:17:01.972Z,19.5
2022-09-14T13:18:02.129Z,19.6
2022-09-14T13:19:01.054Z,19.6
2022-09-14T13:20:01.093Z,19.6
2022-09-14T13:21:01.080Z,19.6